Time;durP1;ratioP1;P1;durP2;ratioP2;P2;SDS_P1;SDS_P2;PMS_P1;PMS_P2;Temp;Humidity;BMP_temperature;BMP_pressure;BME280_temperature;BME280_humidity;BME280_pressure;Samples;Min_cycle;Max_cycle;Signal;HPM_P1;HPM_P2
2022/07/04 00:00:10;;;;;;;1.80;1.70;;;;;;;;;;5062228;28;20214;-70
2022/07/04 00:03:00;;;;;;;1.67;1.67;;;;;;;;;;5061524;28;20254;-70
2022/07/04 00:05:47;;;;;;;1.40;1.40;;;;;;;;;;5060474;28;20200;-70
2022/07/04 00:08:34;;;;;;;1.43;1.43;;;;;;;;;;5056228;28;20222;-70
2022/07/04 00:11:21;;;;;;;1.60;1.60;;;;;;;;;;5048552;28;20226;-70
2022/07/04 00:14:08;;;;;;;1.80;1.80;;;;;;;;;;5052004;28;20199;-70
2022/07/04 00:16:55;;;;;;;1.93;1.83;;;;;;;;;;5047643;28;20658;-70
2022/07/04 00:19:43;;;;;;;1.50;1.40;;;;;;;;;;5049172;28;20206;-69
2022/07/04 00:22:30;;;;;;;1.60;1.60;;;;;;;;;;5051518;28;20210;-70
2022/07/04 00:25:17;;;;;;;1.50;1.50;;;;;;;;;;5049271;28;20667;-70
2022/07/04 00:28:05;;;;;;;1.80;1.70;;;;;;;;;;5050226;28;20231;-69
2022/07/04 00:30:52;;;;;;;2.30;1.80;;;;;;;;;;5048576;28;20566;-70
2022/07/04 00:33:38;;;;;;;2.10;2.00;;;;;;;;;;5047329;28;20297;-70
2022/07/04 00:36:27;;;;;;;1.70;1.60;;;;;;;;;;5047560;28;20210;-70
2022/07/04 00:39:14;;;;;;;1.50;1.50;;;;;;;;;;5044551;28;20687;-70
2022/07/04 00:42:01;;;;;;;1.70;1.60;;;;;;;;;;5047871;28;20204;-71
2022/07/04 00:44:48;;;;;;;1.60;1.60;;;;;;;;;;5048364;28;20214;-70
2022/07/04 00:47:35;;;;;;;1.60;1.60;;;;;;;;;;5048166;28;20577;-70
2022/07/04 00:50:22;;;;;;;1.73;1.73;;;;;;;;;;5053540;28;20205;-70
2022/07/04 00:53:12;;;;;;;2.00;1.53;;;;;;;;;;5047829;28;20264;-70
2022/07/04 00:55:59;;;;;;;1.53;1.50;;;;;;;;;;5048124;28;20264;-70
2022/07/04 00:58:46;;;;;;;1.33;1.33;;;;;;;;;;5048619;28;20214;-70
2022/07/04 01:01:33;;;;;;;1.30;1.30;;;;;;;;;;5045597;28;20206;-73
2022/07/04 01:04:20;;;;;;;1.63;1.57;;;;;;;;;;5044616;28;20286;-71
2022/07/04 01:07:08;;;;;;;1.30;1.30;;;;;;;;;;5048446;28;20228;-72
2022/07/04 01:09:58;;;;;;;1.30;1.30;;;;;;;;;;5055021;28;20250;-73
2022/07/04 01:12:45;;;;;;;1.30;1.30;;;;;;;;;;5054943;28;20207;-73
2022/07/04 01:15:32;;;;;;;1.20;1.20;;;;;;;;;;5060167;28;20692;-73
2022/07/04 01:18:19;;;;;;;1.27;1.23;;;;;;;;;;5060201;28;20568;-73
2022/07/04 01:21:08;;;;;;;1.40;1.40;;;;;;;;;;5059093;28;20241;-73
2022/07/04 01:23:55;;;;;;;1.57;1.40;;;;;;;;;;5057626;28;20199;-73
2022/07/04 01:26:42;;;;;;;1.40;1.40;;;;;;;;;;5058286;28;20229;-73
2022/07/04 01:29:29;;;;;;;1.40;1.40;;;;;;;;;;5056944;28;20663;-73
2022/07/04 01:32:17;;;;;;;1.27;1.27;;;;;;;;;;5060243;28;20205;-73
2022/07/04 01:35:04;;;;;;;1.20;1.20;;;;;;;;;;5055086;28;20662;-73
2022/07/04 01:37:53;;;;;;;1.23;1.23;;;;;;;;;;5056651;28;20209;-73
2022/07/04 01:40:40;;;;;;;1.40;1.40;;;;;;;;;;5057290;28;20224;-73
2022/07/04 01:43:27;;;;;;;1.00;1.00;;;;;;;;;;5061682;28;20536;-73
2022/07/04 01:46:14;;;;;;;1.30;1.30;;;;;;;;;;5056798;28;20237;-72
2022/07/04 01:49:01;;;;;;;1.20;1.20;;;;;;;;;;5059684;28;20235;-73
2022/07/04 01:51:48;;;;;;;1.30;1.30;;;;;;;;;;5054710;28;20201;-73
2022/07/04 01:54:37;;;;;;;1.40;1.40;;;;;;;;;;5050827;28;20558;-73
2022/07/04 01:57:24;;;;;;;1.00;1.00;;;;;;;;;;5061469;28;20217;-73
2022/07/04 02:03:16;;;;;;;1.10;1.10;;;;;;;;;;5061475;28;20359;-73
2022/07/04 02:06:03;;;;;;;1.10;1.10;;;;;;;;;;5064306;28;20625;-73
2022/07/04 02:15:01;;;;;;;1.20;1.20;;;;;;;;;;5064317;28;20204;-73
2022/07/04 02:17:48;;;;;;;1.03;1.03;;;;;;;;;;5060860;28;20202;-73
2022/07/04 02:20:36;;;;;;;1.07;1.07;;;;;;;;;;5058238;28;20238;-73
2022/07/04 02:23:23;;;;;;;1.10;1.10;;;;;;;;;;5063327;28;20213;-73
2022/07/04 02:26:10;;;;;;;1.07;1.07;;;;;;;;;;5060479;28;20217;-72
2022/07/04 02:28:59;;;;;;;1.30;1.30;;;;;;;;;;5058364;28;20652;-72
2022/07/04 02:31:46;;;;;;;1.23;1.23;;;;;;;;;;5057703;28;20202;-73
2022/07/04 02:34:33;;;;;;;0.90;0.90;;;;;;;;;;5057748;28;20203;-73
2022/07/04 02:37:19;;;;;;;1.23;1.13;;;;;;;;;;5060178;28;20300;-72
2022/07/04 02:40:08;;;;;;;1.03;1.03;;;;;;;;;;5060738;28;20218;-73
2022/07/04 02:42:55;;;;;;;1.20;1.20;;;;;;;;;;5057810;28;20209;-73
2022/07/04 02:45:43;;;;;;;0.87;0.87;;;;;;;;;;5064922;28;20214;-73
2022/07/04 02:48:30;;;;;;;0.93;0.93;;;;;;;;;;5058960;28;20817;-72
2022/07/04 02:51:17;;;;;;;1.00;1.00;;;;;;;;;;5059656;28;20264;-72
2022/07/04 02:54:04;;;;;;;1.00;1.00;;;;;;;;;;5057851;28;20226;-73
2022/07/04 02:56:51;;;;;;;1.10;1.00;;;;;;;;;;5058291;28;20600;-73
2022/07/04 02:59:38;;;;;;;1.20;1.20;;;;;;;;;;5058329;28;20211;-73
2022/07/04 03:02:26;;;;;;;1.00;1.00;;;;;;;;;;5060228;28;20228;-73
2022/07/04 03:05:13;;;;;;;1.00;1.00;;;;;;;;;;5057147;28;20838;-73
2022/07/04 03:08:00;;;;;;;1.13;0.93;;;;;;;;;;5063115;28;20233;-73
2022/07/04 03:10:49;;;;;;;0.97;0.97;;;;;;;;;;5058409;28;20742;-72
2022/07/04 03:13:36;;;;;;;0.90;0.90;;;;;;;;;;5062373;28;20682;-73
2022/07/04 03:16:23;;;;;;;0.80;0.80;;;;;;;;;;5059662;28;20207;-72
2022/07/04 03:19:12;;;;;;;0.80;0.80;;;;;;;;;;5057867;28;20256;-72
2022/07/04 03:21:58;;;;;;;1.03;1.00;;;;;;;;;;5061326;28;20214;-73
2022/07/04 03:24:45;;;;;;;1.10;1.10;;;;;;;;;;5063518;28;20218;-73
2022/07/04 03:27:32;;;;;;;0.90;0.90;;;;;;;;;;5060084;28;20232;-72
2022/07/04 03:30:20;;;;;;;0.60;0.60;;;;;;;;;;5063379;28;20214;-73
2022/07/04 03:33:07;;;;;;;1.13;1.03;;;;;;;;;;5065126;28;20202;-73
2022/07/04 03:35:55;;;;;;;0.90;0.90;;;;;;;;;;5063369;28;20669;-72
2022/07/04 03:38:42;;;;;;;1.70;0.90;;;;;;;;;;5059566;28;20221;-72
2022/07/04 03:41:29;;;;;;;0.67;0.67;;;;;;;;;;5062400;28;20202;-73
2022/07/04 03:44:16;;;;;;;0.90;0.90;;;;;;;;;;5057965;28;20216;-73
2022/07/04 03:47:03;;;;;;;0.80;0.80;;;;;;;;;;5063882;28;20668;-73
2022/07/04 03:49:50;;;;;;;0.70;0.70;;;;;;;;;;5060624;28;20480;-73
2022/07/04 03:52:38;;;;;;;0.70;0.70;;;;;;;;;;5039025;28;20619;-72
2022/07/04 03:55:25;;;;;;;1.33;1.00;;;;;;;;;;5038251;28;20212;-73
2022/07/04 03:58:12;;;;;;;0.90;0.90;;;;;;;;;;5039606;28;20212;-73
2022/07/04 04:01:00;;;;;;;0.97;0.97;;;;;;;;;;5042293;28;20217;-73
2022/07/04 04:06:52;;;;;;;0.80;0.80;;;;;;;;;;5058537;28;20209;-73
2022/07/04 04:09:40;;;;;;;0.83;0.83;;;;;;;;;;5062171;28;20737;-73
2022/07/04 04:12:27;;;;;;;0.73;0.73;;;;;;;;;;5063081;28;20223;-72
2022/07/04 04:15:14;;;;;;;0.90;0.90;;;;;;;;;;5060493;28;20234;-73
2022/07/04 04:18:01;;;;;;;0.90;0.90;;;;;;;;;;5061178;28;20210;-73
2022/07/04 04:20:48;;;;;;;1.47;0.87;;;;;;;;;;5058573;28;20214;-73
2022/07/04 04:23:35;;;;;;;0.90;0.90;;;;;;;;;;5057537;28;20209;-73
2022/07/04 04:26:24;;;;;;;0.90;0.90;;;;;;;;;;5056698;28;20211;-73
2022/07/04 04:29:10;;;;;;;1.03;1.03;;;;;;;;;;5055483;28;20606;-73
2022/07/04 04:31:57;;;;;;;1.20;1.10;;;;;;;;;;5054224;28;20218;-73
2022/07/04 04:34:44;;;;;;;0.90;0.90;;;;;;;;;;5060366;28;20654;-73
2022/07/04 04:37:31;;;;;;;1.40;0.87;;;;;;;;;;5056208;28;20648;-73
2022/07/04 04:40:19;;;;;;;0.80;0.80;;;;;;;;;;5058017;28;20210;-73
2022/07/04 04:43:07;;;;;;;0.87;0.87;;;;;;;;;;5055139;28;20211;-73
2022/07/04 04:45:54;;;;;;;0.80;0.80;;;;;;;;;;5056343;28;20199;-73
2022/07/04 04:48:41;;;;;;;0.90;0.90;;;;;;;;;;5057971;28;20840;-73
2022/07/04 04:51:28;;;;;;;1.00;0.90;;;;;;;;;;5061646;28;20628;-73
2022/07/04 04:54:15;;;;;;;1.00;1.00;;;;;;;;;;5061031;28;20344;-73
2022/07/04 04:57:02;;;;;;;2.93;1.20;;;;;;;;;;5058790;28;20211;-73
2022/07/04 04:59:51;;;;;;;0.90;0.90;;;;;;;;;;5061276;28;20285;-73
2022/07/04 05:02:38;;;;;;;0.90;0.90;;;;;;;;;;5058909;28;20292;-73
2022/07/04 05:05:25;;;;;;;0.80;0.80;;;;;;;;;;5057330;28;20290;-73
2022/07/04 05:08:13;;;;;;;0.80;0.80;;;;;;;;;;5060359;28;20249;-73
2022/07/04 05:11:00;;;;;;;0.80;0.80;;;;;;;;;;5053736;28;20247;-73
2022/07/04 05:13:47;;;;;;;1.13;1.07;;;;;;;;;;5058939;28;20293;-73
2022/07/04 05:16:35;;;;;;;0.90;0.90;;;;;;;;;;5058446;28;20238;-73
2022/07/04 05:19:22;;;;;;;0.87;0.80;;;;;;;;;;5060138;28;20204;-73
2022/07/04 05:22:10;;;;;;;0.83;0.83;;;;;;;;;;5061423;28;20214;-73
2022/07/04 05:24:57;;;;;;;0.80;0.80;;;;;;;;;;5051620;28;20208;-72
2022/07/04 05:27:44;;;;;;;0.90;0.90;;;;;;;;;;5058026;28;20764;-73
2022/07/04 05:30:31;;;;;;;0.70;0.70;;;;;;;;;;5060828;28;20298;-73
2022/07/04 05:33:19;;;;;;;0.60;0.60;;;;;;;;;;5060035;28;20203;-73
2022/07/04 05:36:07;;;;;;;0.70;0.70;;;;;;;;;;5057251;28;20207;-73
2022/07/04 05:38:54;;;;;;;0.70;0.70;;;;;;;;;;5056184;28;20654;-73
2022/07/04 05:41:41;;;;;;;0.83;0.83;;;;;;;;;;5066415;28;20204;-73
2022/07/04 05:44:28;;;;;;;0.97;0.97;;;;;;;;;;5058167;28;20214;-73
2022/07/04 05:47:15;;;;;;;0.80;0.80;;;;;;;;;;5060874;28;20215;-73
2022/07/04 05:50:04;;;;;;;0.70;0.70;;;;;;;;;;5057308;28;20211;-73
2022/07/04 05:52:51;;;;;;;0.60;0.60;;;;;;;;;;5064038;28;20204;-73
2022/07/04 05:55:38;;;;;;;0.90;0.90;;;;;;;;;;5062926;28;20342;-73
2022/07/04 05:58:25;;;;;;;0.87;0.87;;;;;;;;;;5063003;28;20209;-72
2022/07/04 06:01:13;;;;;;;0.67;0.67;;;;;;;;;;5060990;28;20237;-73
2022/07/04 06:04:00;;;;;;;0.80;0.80;;;;;;;;;;5066045;28;20204;-72
2022/07/04 06:06:48;;;;;;;1.07;1.07;;;;;;;;;;5062011;28;20212;-73
2022/07/04 06:09:35;;;;;;;0.67;0.67;;;;;;;;;;5058504;28;20240;-72
2022/07/04 06:12:22;;;;;;;0.80;0.80;;;;;;;;;;5063667;28;20200;-72
2022/07/04 06:15:10;;;;;;;0.77;0.77;;;;;;;;;;5059758;28;20237;-73
2022/07/04 06:17:57;;;;;;;0.70;0.70;;;;;;;;;;5059568;28;20224;-73
2022/07/04 06:20:44;;;;;;;0.93;0.93;;;;;;;;;;5063805;28;20244;-73
2022/07/04 06:23:33;;;;;;;0.60;0.60;;;;;;;;;;5057740;28;20217;-73
2022/07/04 06:26:20;;;;;;;0.80;0.80;;;;;;;;;;5062694;28;20240;-73
2022/07/04 06:29:07;;;;;;;0.90;0.90;;;;;;;;;;5056379;28;20747;-73
2022/07/04 06:31:54;;;;;;;0.80;0.80;;;;;;;;;;5059050;28;20480;-73
2022/07/04 06:37:46;;;;;;;0.80;0.80;;;;;;;;;;5064193;28;20214;-72
2022/07/04 06:40:35;;;;;;;0.70;0.70;;;;;;;;;;5060150;28;20254;-73
2022/07/04 06:43:23;;;;;;;0.80;0.80;;;;;;;;;;5061558;28;20215;-73
2022/07/04 06:46:11;;;;;;;0.70;0.70;;;;;;;;;;5063239;28;20206;-73
2022/07/04 06:48:58;;;;;;;0.98;0.98;;;;;;;;;;5062680;28;20595;-73
2022/07/04 06:51:45;;;;;;;0.70;0.70;;;;;;;;;;5059991;28;20205;-73
2022/07/04 06:54:32;;;;;;;0.82;0.82;;;;;;;;;;5061892;28;20615;-73
2022/07/04 06:57:20;;;;;;;0.60;0.60;;;;;;;;;;5062775;28;20666;-73
2022/07/04 07:00:09;;;;;;;0.80;0.80;;;;;;;;;;5057855;28;20209;-73
2022/07/04 07:02:56;;;;;;;0.90;0.90;;;;;;;;;;5059812;28;20237;-73
2022/07/04 07:05:43;;;;;;;0.90;0.90;;;;;;;;;;5059124;28;20662;-73
2022/07/04 07:08:30;;;;;;;0.80;0.80;;;;;;;;;;5058419;28;20219;-72
2022/07/04 07:11:19;;;;;;;0.80;0.80;;;;;;;;;;5062168;28;20214;-72
2022/07/04 07:14:08;;;;;;;0.60;0.60;;;;;;;;;;5061654;28;20211;-73
2022/07/04 07:16:55;;;;;;;0.70;0.70;;;;;;;;;;5055670;28;20207;-73
2022/07/04 07:19:42;;;;;;;0.60;0.60;;;;;;;;;;5058740;28;20207;-73
2022/07/04 07:22:29;;;;;;;0.63;0.63;;;;;;;;;;5060999;28;20207;-73
2022/07/04 07:25:16;;;;;;;0.95;0.88;;;;;;;;;;5058919;28;20666;-73
2022/07/04 07:28:03;;;;;;;0.65;0.65;;;;;;;;;;5065566;28;20207;-73
2022/07/04 07:30:52;;;;;;;0.60;0.60;;;;;;;;;;5059209;28;20203;-73
2022/07/04 07:33:39;;;;;;;0.60;0.60;;;;;;;;;;5059896;28;20223;-73
2022/07/04 07:36:25;;;;;;;0.70;0.70;;;;;;;;;;5063548;28;20273;-73
2022/07/04 07:39:13;;;;;;;0.60;0.60;;;;;;;;;;5058748;28;20226;-73
2022/07/04 07:41:59;;;;;;;0.70;0.70;;;;;;;;;;5054316;28;20215;-73
2022/07/04 07:44:47;;;;;;;0.65;0.65;;;;;;;;;;5063668;28;20668;-73
2022/07/04 07:47:35;;;;;;;1.10;1.00;;;;;;;;;;5057281;28;20211;-73
2022/07/04 07:50:22;;;;;;;0.80;0.80;;;;;;;;;;5056600;28;20227;-73
2022/07/04 07:53:09;;;;;;;0.80;0.80;;;;;;;;;;5057862;28;20212;-73
2022/07/04 07:55:56;;;;;;;0.65;0.65;;;;;;;;;;5064838;28;20211;-73
2022/07/04 07:58:43;;;;;;;0.68;0.68;;;;;;;;;;5058770;28;20253;-73
2022/07/04 08:01:30;;;;;;;0.60;0.60;;;;;;;;;;5057691;28;20204;-74
2022/07/04 08:04:37;;;;;;;0.75;0.75;;;;;;;;;;5065824;28;20289;-73
2022/07/04 08:07:24;;;;;;;0.70;0.70;;;;;;;;;;5062922;28;20199;-73
2022/07/04 08:10:11;;;;;;;0.80;0.80;;;;;;;;;;5057203;28;20232;-73
2022/07/04 08:12:58;;;;;;;0.57;0.57;;;;;;;;;;5062091;28;20215;-72
2022/07/04 08:15:45;;;;;;;0.80;0.80;;;;;;;;;;5058820;28;20676;-73
2022/07/04 08:18:33;;;;;;;0.80;0.80;;;;;;;;;;5060813;28;20680;-73
2022/07/04 08:21:21;;;;;;;0.90;0.80;;;;;;;;;;5053342;28;20207;-73
2022/07/04 08:24:08;;;;;;;0.88;0.82;;;;;;;;;;5060376;28;20219;-72
2022/07/04 08:26:55;;;;;;;0.65;0.65;;;;;;;;;;5058726;28;20625;-73
2022/07/04 08:29:42;;;;;;;0.95;0.93;;;;;;;;;;5060553;28;20215;-73
2022/07/04 08:32:29;;;;;;;0.90;0.90;;;;;;;;;;5058588;28;20207;-73
2022/07/04 08:35:16;;;;;;;0.65;0.65;;;;;;;;;;5057057;28;20566;-73
2022/07/04 08:38:05;;;;;;;0.80;0.80;;;;;;;;;;5056798;28;20202;-73
2022/07/04 08:40:57;;;;;;;0.68;0.68;;;;;;;;;;5056953;28;20207;-73
2022/07/04 08:43:45;;;;;;;1.13;0.85;;;;;;;;;;5058447;28;20215;-73
2022/07/04 08:46:32;;;;;;;0.70;0.70;;;;;;;;;;5061189;28;20257;-73
2022/07/04 08:49:22;;;;;;;0.50;0.50;;;;;;;;;;5057885;28;20269;-73
2022/07/04 08:52:12;;;;;;;0.70;0.70;;;;;;;;;;5062182;28;20212;-73
2022/07/04 09:01:14;;;;;;;0.57;0.57;;;;;;;;;;5059203;28;20758;-73
2022/07/04 09:04:03;;;;;;;0.50;0.50;;;;;;;;;;5059058;28;20273;-73
2022/07/04 09:06:51;;;;;;;0.50;0.50;;;;;;;;;;5058785;28;20288;-73
2022/07/04 09:09:39;;;;;;;0.40;0.40;;;;;;;;;;5060304;28;20277;-73
2022/07/04 09:12:28;;;;;;;1.05;0.70;;;;;;;;;;5056782;28;20202;-73
2022/07/04 09:15:16;;;;;;;0.40;0.40;;;;;;;;;;5057233;28;20204;-73
2022/07/04 09:18:03;;;;;;;0.65;0.65;;;;;;;;;;5062089;28;20210;-72
2022/07/04 09:20:52;;;;;;;0.57;0.57;;;;;;;;;;5061692;28;20215;-73
2022/07/04 09:23:41;;;;;;;0.50;0.50;;;;;;;;;;5063145;28;20233;-74
2022/07/04 09:26:28;;;;;;;0.60;0.60;;;;;;;;;;5057354;28;20509;-73
2022/07/04 09:29:16;;;;;;;1.17;0.80;;;;;;;;;;5060088;28;20234;-72
2022/07/04 09:32:03;;;;;;;0.80;0.65;;;;;;;;;;5055349;28;20206;-73
2022/07/04 09:34:55;;;;;;;0.60;0.47;;;;;;;;;;5057990;28;20278;-74
2022/07/04 09:37:45;;;;;;;0.82;0.75;;;;;;;;;;5061559;28;20668;-75
2022/07/04 09:41:24;;;;;;;0.73;0.60;;;;;;;;;;5056504;28;20722;-74
2022/07/04 09:44:00;;;;;;;0.65;0.65;;;;;;;;;;5061863;28;20215;-75
2022/07/04 09:46:48;;;;;;;0.45;0.45;;;;;;;;;;5058474;28;20678;-74
2022/07/04 09:49:36;;;;;;;0.60;0.60;;;;;;;;;;5063936;28;20338;-73
2022/07/04 09:52:23;;;;;;;0.52;0.52;;;;;;;;;;5061071;28;20210;-74
2022/07/04 09:55:10;;;;;;;0.47;0.40;;;;;;;;;;5059733;28;20670;-75
2022/07/04 09:57:58;;;;;;;0.40;0.40;;;;;;;;;;5057934;28;20199;-73
2022/07/04 10:00:47;;;;;;;0.47;0.47;;;;;;;;;;5056929;28;20207;-74
2022/07/04 10:03:37;;;;;;;0.60;0.60;;;;;;;;;;5059782;28;20704;-74
2022/07/04 10:06:26;;;;;;;0.50;0.40;;;;;;;;;;5065875;28;20195;-74
2022/07/04 10:09:15;;;;;;;0.52;0.52;;;;;;;;;;5062539;28;20235;-74
2022/07/04 10:12:02;;;;;;;0.30;0.30;;;;;;;;;;5060256;28;20677;-75
2022/07/04 10:14:50;;;;;;;0.43;0.43;;;;;;;;;;5061909;28;20689;-72
2022/07/04 10:17:37;;;;;;;0.30;0.30;;;;;;;;;;5058169;28;20210;-74
2022/07/04 10:20:26;;;;;;;0.90;0.55;;;;;;;;;;5057200;28;20232;-74
2022/07/04 10:23:13;;;;;;;1.48;0.43;;;;;;;;;;5056409;28;20564;-74
2022/07/04 10:26:00;;;;;;;0.60;0.60;;;;;;;;;;5056611;28;20562;-74
2022/07/04 10:28:48;;;;;;;0.65;0.50;;;;;;;;;;5060494;28;20664;-74
2022/07/04 10:31:35;;;;;;;0.40;0.40;;;;;;;;;;5064374;28;20331;-74
2022/07/04 10:34:23;;;;;;;0.57;0.57;;;;;;;;;;5057206;28;20227;-73
2022/07/04 10:37:12;;;;;;;0.30;0.30;;;;;;;;;;5057950;28;20549;-74
2022/07/04 10:40:00;;;;;;;0.30;0.30;;;;;;;;;;5060155;28;20208;-74
2022/07/04 10:42:47;;;;;;;0.40;0.40;;;;;;;;;;5060962;28;20200;-74
2022/07/04 10:45:35;;;;;;;0.82;0.60;;;;;;;;;;5060075;28;20602;-75
2022/07/04 10:48:22;;;;;;;0.60;0.40;;;;;;;;;;5062616;28;20219;-75
2022/07/04 10:51:10;;;;;;;0.80;0.50;;;;;;;;;;5057714;28;20238;-74
2022/07/04 10:54:03;;;;;;;0.32;0.30;;;;;;;;;;5057458;28;20211;-74
2022/07/04 10:56:53;;;;;;;0.25;0.25;;;;;;;;;;5057288;28;20211;-74
2022/07/04 10:59:41;;;;;;;0.30;0.30;;;;;;;;;;5057354;28;20282;-74
2022/07/04 11:02:30;;;;;;;0.38;0.38;;;;;;;;;;5063635;28;20258;-74
2022/07/04 11:05:21;;;;;;;0.57;0.57;;;;;;;;;;5061083;28;20203;-73
2022/07/04 11:08:08;;;;;;;0.30;0.30;;;;;;;;;;5059258;28;20247;-72
2022/07/04 11:11:05;;;;;;;1.67;0.43;;;;;;;;;;5060311;28;20239;-74
2022/07/04 11:14:27;;;;;;;0.70;0.50;;;;;;;;;;5056883;28;20207;-74
2022/07/04 11:17:16;;;;;;;0.47;0.40;;;;;;;;;;5059530;28;20215;-74
2022/07/04 11:20:06;;;;;;;0.52;0.40;;;;;;;;;;5062108;28;20206;-74
2022/07/04 11:22:53;;;;;;;0.50;0.50;;;;;;;;;;5054433;28;20249;-74
2022/07/04 11:25:43;;;;;;;1.05;0.40;;;;;;;;;;5057949;28;20282;-74
2022/07/04 11:28:35;;;;;;;0.30;0.30;;;;;;;;;;5059858;28;20204;-74
2022/07/04 11:31:22;;;;;;;0.57;0.50;;;;;;;;;;5063612;28;20234;-74
2022/07/04 11:34:09;;;;;;;0.60;0.40;;;;;;;;;;5063022;28;20207;-73
2022/07/04 11:36:56;;;;;;;0.32;0.32;;;;;;;;;;5060810;28;20207;-74
2022/07/04 11:39:43;;;;;;;0.55;0.30;;;;;;;;;;5059262;28;20202;-74
2022/07/04 11:45:38;;;;;;;0.40;0.40;;;;;;;;;;5045953;28;20216;-74
2022/07/04 11:48:26;;;;;;;0.30;0.30;;;;;;;;;;5059951;28;20233;-73
2022/07/04 11:51:17;;;;;;;0.43;0.43;;;;;;;;;;5054292;28;20780;-74
2022/07/04 11:54:05;;;;;;;0.40;0.40;;;;;;;;;;5058435;28;20237;-74
2022/07/04 11:56:52;;;;;;;0.30;0.30;;;;;;;;;;5057126;28;20207;-74
2022/07/04 11:59:39;;;;;;;0.50;0.50;;;;;;;;;;5059495;28;20218;-73
2022/07/04 12:02:28;;;;;;;0.88;0.40;;;;;;;;;;5059780;28;20272;-73
2022/07/04 12:05:17;;;;;;;0.30;0.30;;;;;;;;;;5059140;28;20214;-74
2022/07/04 12:08:05;;;;;;;0.73;0.40;;;;;;;;;;5059400;28;20207;-74
2022/07/04 12:10:52;;;;;;;0.40;0.40;;;;;;;;;;5054175;28;20239;-74
2022/07/04 12:13:39;;;;;;;0.47;0.30;;;;;;;;;;5061116;28;20207;-75
2022/07/04 12:16:26;;;;;;;0.20;0.20;;;;;;;;;;5061513;28;20207;-75
2022/07/04 12:19:15;;;;;;;0.40;0.40;;;;;;;;;;5056332;28;20206;-75
2022/07/04 12:22:03;;;;;;;0.30;0.30;;;;;;;;;;5059396;28;20684;-75
2022/07/04 12:24:52;;;;;;;0.30;0.30;;;;;;;;;;5059426;28;20301;-74
2022/07/04 12:27:39;;;;;;;0.43;0.43;;;;;;;;;;5057439;28;20207;-75
2022/07/04 12:30:28;;;;;;;0.40;0.40;;;;;;;;;;5057815;28;20226;-74
2022/07/04 12:33:19;;;;;;;0.60;0.60;;;;;;;;;;5059570;28;20213;-74
2022/07/04 12:36:08;;;;;;;0.50;0.50;;;;;;;;;;5054320;28;20210;-74
2022/07/04 12:38:56;;;;;;;0.75;0.50;;;;;;;;;;5051839;28;20204;-74
2022/07/04 12:41:45;;;;;;;0.63;0.63;;;;;;;;;;5058323;28;20218;-74
2022/07/04 12:44:32;;;;;;;0.40;0.40;;;;;;;;;;5061867;28;20848;-73
2022/07/04 12:47:19;;;;;;;0.43;0.43;;;;;;;;;;5058070;28;20204;-74
2022/07/04 12:50:07;;;;;;;0.40;0.40;;;;;;;;;;5056422;28;20227;-74
2022/07/04 12:52:55;;;;;;;0.55;0.55;;;;;;;;;;5060089;28;20246;-74
2022/07/04 12:55:43;;;;;;;0.73;0.50;;;;;;;;;;5055322;28;20224;-74
2022/07/04 12:58:30;;;;;;;0.65;0.50;;;;;;;;;;5058013;28;20293;-74
2022/07/04 13:01:17;;;;;;;0.68;0.68;;;;;;;;;;5055809;28;20704;-74
2022/07/04 13:04:05;;;;;;;0.40;0.40;;;;;;;;;;5058353;28;20630;-74
2022/07/04 13:06:52;;;;;;;0.30;0.30;;;;;;;;;;5062146;28;20210;-74
2022/07/04 13:09:41;;;;;;;0.75;0.45;;;;;;;;;;5057120;28;20362;-74
2022/07/04 13:12:29;;;;;;;0.47;0.45;;;;;;;;;;5060493;28;20220;-74
2022/07/04 13:15:16;;;;;;;0.65;0.65;;;;;;;;;;5059236;28;20214;-73
2022/07/04 13:18:05;;;;;;;1.95;0.55;;;;;;;;;;5058300;28;20215;-74
2022/07/04 13:20:52;;;;;;;0.47;0.47;;;;;;;;;;5061206;28;20265;-73
2022/07/04 13:23:39;;;;;;;0.35;0.35;;;;;;;;;;5059970;28;20207;-73
2022/07/04 13:26:30;;;;;;;0.63;0.63;;;;;;;;;;5055375;28;20208;-73
2022/07/04 13:29:17;;;;;;;0.50;0.50;;;;;;;;;;5050738;28;20208;-74
2022/07/04 13:32:05;;;;;;;0.43;0.43;;;;;;;;;;5056676;28;20230;-74
2022/07/04 13:34:52;;;;;;;0.70;0.70;;;;;;;;;;5052230;28;20279;-74
2022/07/04 13:37:39;;;;;;;0.63;0.57;;;;;;;;;;5056268;28;20244;-74
2022/07/04 13:40:26;;;;;;;0.80;0.47;;;;;;;;;;5058280;28;20273;-75
2022/07/04 13:43:15;;;;;;;0.25;0.25;;;;;;;;;;5052812;28;20567;-74
2022/07/04 13:46:03;;;;;;;0.60;0.60;;;;;;;;;;5055160;28;20664;-74
2022/07/04 13:48:50;;;;;;;0.45;0.45;;;;;;;;;;5060420;28;20246;-74
2022/07/04 13:51:38;;;;;;;0.50;0.50;;;;;;;;;;5062553;28;20235;-74
2022/07/04 13:54:24;;;;;;;0.52;0.52;;;;;;;;;;5060649;28;20218;-74
2022/07/04 13:57:12;;;;;;;0.70;0.35;;;;;;;;;;5057211;28;20687;-75
2022/07/04 14:00:00;;;;;;;0.45;0.45;;;;;;;;;;5057334;28;20208;-74
2022/07/04 14:02:47;;;;;;;0.50;0.50;;;;;;;;;;5060087;28;20227;-74
2022/07/04 14:05:34;;;;;;;0.50;0.50;;;;;;;;;;5065102;28;20214;-74
2022/07/04 14:08:21;;;;;;;0.35;0.30;;;;;;;;;;5066845;28;20204;-74
2022/07/04 14:11:09;;;;;;;0.35;0.32;;;;;;;;;;5059975;28;20242;-73
2022/07/04 14:13:56;;;;;;;0.45;0.40;;;;;;;;;;5060536;28;20213;-74
2022/07/04 14:16:44;;;;;;;0.30;0.30;;;;;;;;;;5069683;28;20211;-73
2022/07/04 14:19:31;;;;;;;0.38;0.30;;;;;;;;;;5066540;28;20215;-74
2022/07/04 14:22:18;;;;;;;0.45;0.45;;;;;;;;;;5066560;28;20602;-74
2022/07/04 14:25:06;;;;;;;0.50;0.40;;;;;;;;;;5060604;28;20205;-74
2022/07/04 14:27:53;;;;;;;0.40;0.40;;;;;;;;;;5059330;28;20213;-74
2022/07/04 14:30:40;;;;;;;0.40;0.40;;;;;;;;;;5060586;28;20592;-74
2022/07/04 14:33:28;;;;;;;0.30;0.30;;;;;;;;;;5064601;28;20609;-74
2022/07/04 14:36:15;;;;;;;1.20;0.40;;;;;;;;;;5066384;28;20213;-74
2022/07/04 14:39:03;;;;;;;0.85;0.43;;;;;;;;;;5062043;28;20274;-74
2022/07/04 14:41:50;;;;;;;0.20;0.20;;;;;;;;;;5057600;28;20200;-74
2022/07/04 14:44:38;;;;;;;0.38;0.38;;;;;;;;;;5061109;28;20210;-74
2022/07/04 14:47:25;;;;;;;0.73;0.32;;;;;;;;;;5064786;28;20237;-73
2022/07/04 14:50:13;;;;;;;0.30;0.30;;;;;;;;;;5062255;28;20243;-74
2022/07/04 14:53:00;;;;;;;0.40;0.40;;;;;;;;;;5061683;28;20652;-73
2022/07/04 14:55:47;;;;;;;0.38;0.38;;;;;;;;;;5061014;28;20537;-73
2022/07/04 14:58:34;;;;;;;0.40;0.40;;;;;;;;;;5066596;28;20203;-74
2022/07/04 15:01:23;;;;;;;0.35;0.35;;;;;;;;;;5061819;28;20217;-74
2022/07/04 15:04:10;;;;;;;0.35;0.35;;;;;;;;;;5070067;28;20208;-74
2022/07/04 15:06:59;;;;;;;0.47;0.47;;;;;;;;;;5063801;28;20777;-74
2022/07/04 15:09:46;;;;;;;0.55;0.40;;;;;;;;;;5062450;28;20737;-74
2022/07/04 15:12:33;;;;;;;0.45;0.40;;;;;;;;;;5057867;28;20238;-74
2022/07/04 15:15:20;;;;;;;0.47;0.47;;;;;;;;;;5060496;28;20211;-74
2022/07/04 15:18:10;;;;;;;0.43;0.43;;;;;;;;;;5062991;28;20205;-74
2022/07/04 15:24:12;;;;;;;0.40;0.40;;;;;;;;;;5062864;28;20219;-74
2022/07/04 15:26:58;;;;;;;0.32;0.32;;;;;;;;;;5056825;28;20255;-74
2022/07/04 15:29:45;;;;;;;0.45;0.30;;;;;;;;;;5057841;28;20231;-74
2022/07/04 15:32:32;;;;;;;0.47;0.47;;;;;;;;;;5056865;28;20227;-74
2022/07/04 15:35:20;;;;;;;0.30;0.30;;;;;;;;;;5056791;28;20211;-74
2022/07/04 15:38:06;;;;;;;0.82;0.50;;;;;;;;;;5060521;28;20322;-74
2022/07/04 15:40:55;;;;;;;0.30;0.30;;;;;;;;;;5056147;28;20208;-74
2022/07/04 15:43:42;;;;;;;0.60;0.50;;;;;;;;;;5057059;28;20588;-74
2022/07/04 15:46:29;;;;;;;0.32;0.20;;;;;;;;;;5065239;28;20211;-74
2022/07/04 15:49:16;;;;;;;0.43;0.43;;;;;;;;;;5059112;28;20212;-75
2022/07/04 15:52:05;;;;;;;0.40;0.40;;;;;;;;;;5062960;28;20231;-74
2022/07/04 15:54:52;;;;;;;0.20;0.20;;;;;;;;;;5054826;28;20212;-74
2022/07/04 15:57:40;;;;;;;0.35;0.35;;;;;;;;;;5061468;28;20207;-74
2022/07/04 16:00:27;;;;;;;0.60;0.60;;;;;;;;;;5062807;28;20674;-73
2022/07/04 16:03:15;;;;;;;0.50;0.50;;;;;;;;;;5060636;28;20256;-74
2022/07/04 16:06:02;;;;;;;0.50;0.50;;;;;;;;;;5058023;28;20636;-74
2022/07/04 16:08:50;;;;;;;0.50;0.47;;;;;;;;;;5059620;28;20297;-74
2022/07/04 16:11:37;;;;;;;0.50;0.50;;;;;;;;;;5060048;28;20254;-73
2022/07/04 16:14:25;;;;;;;0.50;0.50;;;;;;;;;;5056708;28;20204;-74
2022/07/04 16:17:14;;;;;;;0.57;0.57;;;;;;;;;;5058867;28;20208;-73
2022/07/04 16:20:02;;;;;;;0.60;0.60;;;;;;;;;;5058078;28;20219;-73
2022/07/04 16:22:50;;;;;;;0.68;0.68;;;;;;;;;;5061806;28;20682;-74
2022/07/04 16:25:37;;;;;;;1.20;0.60;;;;;;;;;;5058253;28;20230;-73
2022/07/04 16:28:24;;;;;;;0.50;0.50;;;;;;;;;;5059660;28;20196;-74
2022/07/04 16:31:12;;;;;;;0.60;0.57;;;;;;;;;;5065425;28;20235;-74
2022/07/04 16:34:00;;;;;;;0.60;0.60;;;;;;;;;;5060826;28;20722;-74
2022/07/04 16:36:47;;;;;;;0.55;0.55;;;;;;;;;;5058181;28;20202;-74
2022/07/04 16:39:34;;;;;;;0.50;0.50;;;;;;;;;;5060223;28;20199;-73
2022/07/04 16:42:21;;;;;;;0.60;0.60;;;;;;;;;;5059545;28;20321;-74
2022/07/04 16:45:09;;;;;;;0.50;0.43;;;;;;;;;;5074732;28;20684;-74
2022/07/04 16:47:58;;;;;;;0.50;0.40;;;;;;;;;;5067089;28;20206;-74
2022/07/04 16:50:44;;;;;;;0.40;0.40;;;;;;;;;;5061576;28;20222;-73
2022/07/04 16:53:31;;;;;;;0.47;0.45;;;;;;;;;;5056815;28;20687;-74
2022/07/04 16:56:18;;;;;;;0.60;0.60;;;;;;;;;;5059945;28;20205;-74
2022/07/04 16:59:05;;;;;;;0.50;0.50;;;;;;;;;;5061065;28;20212;-74
2022/07/04 17:01:52;;;;;;;0.50;0.40;;;;;;;;;;5065036;28;20222;-74
2022/07/04 17:04:42;;;;;;;0.40;0.40;;;;;;;;;;5059746;28;20234;-74
2022/07/04 17:07:30;;;;;;;0.50;0.50;;;;;;;;;;5069088;28;20212;-74
2022/07/04 17:10:17;;;;;;;0.40;0.40;;;;;;;;;;5057865;28;20588;-74
2022/07/04 17:13:06;;;;;;;0.63;0.63;;;;;;;;;;5062338;28;20238;-74